sensor_id;sensor_type;location;lat;lon;timestamp;P1;durP1;ratioP1;P2;durP2;ratioP2
70385;SDS011;63206;55.650;37.500;2023-02-26T00:02:17;31.17;;;11.13;;
70385;SDS011;63206;55.650;37.500;2023-02-26T00:04:43;27.92;;;10.52;;
70385;SDS011;63206;55.650;37.500;2023-02-26T00:07:09;27.20;;;11.85;;
70385;SDS011;63206;55.650;37.500;2023-02-26T00:09:35;25.98;;;10.73;;
70385;SDS011;63206;55.650;37.500;2023-02-26T00:12:01;25.58;;;9.60;;
70385;SDS011;63206;55.650;37.500;2023-02-26T00:14:27;20.92;;;8.73;;
70385;SDS011;63206;55.650;37.500;2023-02-26T00:19:37;21.20;;;7.40;;
70385;SDS011;63206;55.650;37.500;2023-02-26T00:22:08;19.08;;;7.72;;
70385;SDS011;63206;55.650;37.500;2023-02-26T00:24:37;13.77;;;5.32;;
70385;SDS011;63206;55.650;37.500;2023-02-26T00:27:03;21.60;;;6.72;;
70385;SDS011;63206;55.650;37.500;2023-02-26T00:29:29;21.58;;;7.93;;
70385;SDS011;63206;55.650;37.500;2023-02-26T00:31:55;21.55;;;7.72;;
70385;SDS011;63206;55.650;37.500;2023-02-26T00:34:21;19.83;;;7.05;;
70385;SDS011;63206;55.650;37.500;2023-02-26T00:39:32;19.73;;;7.32;;
70385;SDS011;63206;55.650;37.500;2023-02-26T00:42:01;17.67;;;6.50;;
70385;SDS011;63206;55.650;37.500;2023-02-26T00:44:27;18.10;;;7.32;;
70385;SDS011;63206;55.650;37.500;2023-02-26T00:47:03;15.10;;;6.15;;
70385;SDS011;63206;55.650;37.500;2023-02-26T00:55:19;15.18;;;5.05;;
70385;SDS011;63206;55.650;37.500;2023-02-26T00:57:47;13.27;;;5.63;;
70385;SDS011;63206;55.650;37.500;2023-02-26T01:00:18;15.20;;;5.40;;
70385;SDS011;63206;55.650;37.500;2023-02-26T01:02:50;15.13;;;5.78;;
70385;SDS011;63206;55.650;37.500;2023-02-26T01:05:19;12.05;;;4.82;;
70385;SDS011;63206;55.650;37.500;2023-02-26T01:10:32;14.68;;;4.85;;
70385;SDS011;63206;55.650;37.500;2023-02-26T01:12:59;9.43;;;4.10;;
70385;SDS011;63206;55.650;37.500;2023-02-26T01:15:25;13.07;;;5.13;;
70385;SDS011;63206;55.650;37.500;2023-02-26T01:20:48;13.93;;;4.88;;
70385;SDS011;63206;55.650;37.500;2023-02-26T01:23:26;8.77;;;3.35;;
70385;SDS011;63206;55.650;37.500;2023-02-26T01:26:23;9.00;;;3.80;;
70385;SDS011;63206;55.650;37.500;2023-02-26T01:28:50;7.15;;;2.83;;
70385;SDS011;63206;55.650;37.500;2023-02-26T01:36:43;9.13;;;3.58;;
70385;SDS011;63206;55.650;37.500;2023-02-26T01:39:17;6.93;;;2.60;;
70385;SDS011;63206;55.650;37.500;2023-02-26T01:41:50;8.30;;;3.15;;
70385;SDS011;63206;55.650;37.500;2023-02-26T01:49:39;9.50;;;3.10;;
70385;SDS011;63206;55.650;37.500;2023-02-26T01:57:23;8.18;;;3.20;;
70385;SDS011;63206;55.650;37.500;2023-02-26T01:59:50;7.75;;;3.30;;
70385;SDS011;63206;55.650;37.500;2023-02-26T02:02:20;9.55;;;3.65;;
70385;SDS011;63206;55.650;37.500;2023-02-26T02:04:53;12.25;;;3.80;;
70385;SDS011;63206;55.650;37.500;2023-02-26T02:07:24;9.07;;;3.25;;
70385;SDS011;63206;55.650;37.500;2023-02-26T02:09:55;9.07;;;3.50;;
70385;SDS011;63206;55.650;37.500;2023-02-26T02:17:54;11.45;;;4.40;;
70385;SDS011;63206;55.650;37.500;2023-02-26T02:20:36;10.43;;;3.80;;
70385;SDS011;63206;55.650;37.500;2023-02-26T02:23:16;6.13;;;2.63;;
70385;SDS011;63206;55.650;37.500;2023-02-26T02:34:00;8.25;;;2.88;;
70385;SDS011;63206;55.650;37.500;2023-02-26T02:41:35;6.80;;;2.70;;
70385;SDS011;63206;55.650;37.500;2023-02-26T02:44:06;7.30;;;2.45;;
70385;SDS011;63206;55.650;37.500;2023-02-26T02:46:34;5.00;;;2.30;;
70385;SDS011;63206;55.650;37.500;2023-02-26T02:49:04;7.97;;;2.63;;
70385;SDS011;63206;55.650;37.500;2023-02-26T02:51:32;7.25;;;2.60;;
70385;SDS011;63206;55.650;37.500;2023-02-26T02:54:09;7.72;;;2.60;;
70385;SDS011;63206;55.650;37.500;2023-02-26T02:59:16;7.82;;;2.83;;
70385;SDS011;63206;55.650;37.500;2023-02-26T03:04:15;7.15;;;3.00;;
70385;SDS011;63206;55.650;37.500;2023-02-26T03:06:44;8.20;;;2.90;;
70385;SDS011;63206;55.650;37.500;2023-02-26T03:09:11;9.35;;;3.40;;
70385;SDS011;63206;55.650;37.500;2023-02-26T03:11:42;7.75;;;3.10;;
70385;SDS011;63206;55.650;37.500;2023-02-26T03:14:12;8.77;;;3.92;;
70385;SDS011;63206;55.650;37.500;2023-02-26T03:19:20;8.52;;;3.47;;
70385;SDS011;63206;55.650;37.500;2023-02-26T03:24:50;8.63;;;3.50;;
70385;SDS011;63206;55.650;37.500;2023-02-26T03:27:23;10.10;;;4.10;;
70385;SDS011;63206;55.650;37.500;2023-02-26T03:35:00;8.40;;;3.65;;
70385;SDS011;63206;55.650;37.500;2023-02-26T03:37:34;10.57;;;4.32;;
70385;SDS011;63206;55.650;37.500;2023-02-26T03:40:05;8.05;;;3.28;;
70385;SDS011;63206;55.650;37.500;2023-02-26T03:42:35;10.68;;;4.28;;
70385;SDS011;63206;55.650;37.500;2023-02-26T03:45:09;8.25;;;3.33;;
70385;SDS011;63206;55.650;37.500;2023-02-26T03:47:41;9.80;;;3.60;;
70385;SDS011;63206;55.650;37.500;2023-02-26T03:50:19;10.20;;;4.30;;
70385;SDS011;63206;55.650;37.500;2023-02-26T03:53:06;9.60;;;4.00;;
70385;SDS011;63206;55.650;37.500;2023-02-26T03:56:23;10.57;;;4.40;;
70385;SDS011;63206;55.650;37.500;2023-02-26T03:59:02;9.82;;;3.78;;
70385;SDS011;63206;55.650;37.500;2023-02-26T04:04:40;9.02;;;3.80;;
70385;SDS011;63206;55.650;37.500;2023-02-26T04:07:12;9.85;;;3.40;;
70385;SDS011;63206;55.650;37.500;2023-02-26T04:09:48;10.23;;;4.50;;
70385;SDS011;63206;55.650;37.500;2023-02-26T04:12:14;9.05;;;4.05;;
70385;SDS011;63206;55.650;37.500;2023-02-26T04:14:45;10.43;;;4.55;;
70385;SDS011;63206;55.650;37.500;2023-02-26T04:17:11;9.82;;;4.13;;
70385;SDS011;63206;55.650;37.500;2023-02-26T04:19:37;7.80;;;4.15;;
70385;SDS011;63206;55.650;37.500;2023-02-26T04:22:08;9.05;;;4.00;;
70385;SDS011;63206;55.650;37.500;2023-02-26T04:24:35;9.88;;;3.97;;
70385;SDS011;63206;55.650;37.500;2023-02-26T04:27:04;10.32;;;3.90;;
70385;SDS011;63206;55.650;37.500;2023-02-26T04:29:31;8.65;;;3.65;;
70385;SDS011;63206;55.650;37.500;2023-02-26T04:32:00;9.35;;;3.58;;
70385;SDS011;63206;55.650;37.500;2023-02-26T04:34:34;9.70;;;3.80;;
70385;SDS011;63206;55.650;37.500;2023-02-26T04:37:02;9.25;;;3.80;;
70385;SDS011;63206;55.650;37.500;2023-02-26T04:39:31;7.80;;;3.42;;
70385;SDS011;63206;55.650;37.500;2023-02-26T04:42:03;8.68;;;3.67;;
70385;SDS011;63206;55.650;37.500;2023-02-26T04:44:30;8.23;;;3.13;;
70385;SDS011;63206;55.650;37.500;2023-02-26T04:46:56;7.82;;;3.40;;
70385;SDS011;63206;55.650;37.500;2023-02-26T04:49:22;8.50;;;3.33;;
70385;SDS011;63206;55.650;37.500;2023-02-26T04:51:51;8.38;;;3.10;;
70385;SDS011;63206;55.650;37.500;2023-02-26T04:54:23;6.38;;;2.80;;
70385;SDS011;63206;55.650;37.500;2023-02-26T04:56:55;7.47;;;2.80;;
70385;SDS011;63206;55.650;37.500;2023-02-26T04:59:21;6.70;;;2.50;;
70385;SDS011;63206;55.650;37.500;2023-02-26T05:01:47;6.90;;;2.50;;
70385;SDS011;63206;55.650;37.500;2023-02-26T05:04:18;5.15;;;2.20;;
70385;SDS011;63206;55.650;37.500;2023-02-26T05:06:50;6.07;;;2.45;;
70385;SDS011;63206;55.650;37.500;2023-02-26T05:09:16;4.85;;;2.13;;
70385;SDS011;63206;55.650;37.500;2023-02-26T05:11:43;5.05;;;2.00;;
70385;SDS011;63206;55.650;37.500;2023-02-26T05:14:12;4.43;;;2.20;;
70385;SDS011;63206;55.650;37.500;2023-02-26T05:16:43;4.85;;;2.00;;
70385;SDS011;63206;55.650;37.500;2023-02-26T05:19:12;4.68;;;1.83;;
70385;SDS011;63206;55.650;37.500;2023-02-26T05:21:38;4.50;;;1.98;;
70385;SDS011;63206;55.650;37.500;2023-02-26T05:24:04;3.22;;;1.70;;
70385;SDS011;63206;55.650;37.500;2023-02-26T05:26:30;4.22;;;1.98;;
70385;SDS011;63206;55.650;37.500;2023-02-26T05:28:56;3.47;;;1.70;;
70385;SDS011;63206;55.650;37.500;2023-02-26T05:31:25;4.95;;;1.70;;
70385;SDS011;63206;55.650;37.500;2023-02-26T05:33:54;4.00;;;1.70;;
70385;SDS011;63206;55.650;37.500;2023-02-26T05:36:20;3.15;;;1.55;;
70385;SDS011;63206;55.650;37.500;2023-02-26T05:38:49;2.63;;;1.70;;
70385;SDS011;63206;55.650;37.500;2023-02-26T05:41:15;4.30;;;1.70;;
70385;SDS011;63206;55.650;37.500;2023-02-26T05:43:41;3.08;;;1.60;;
70385;SDS011;63206;55.650;37.500;2023-02-26T05:46:07;2.97;;;1.67;;
70385;SDS011;63206;55.650;37.500;2023-02-26T05:48:35;4.63;;;1.77;;
70385;SDS011;63206;55.650;37.500;2023-02-26T05:51:01;6.47;;;1.80;;
70385;SDS011;63206;55.650;37.500;2023-02-26T05:53:30;2.53;;;1.60;;
70385;SDS011;63206;55.650;37.500;2023-02-26T05:55:59;3.40;;;1.63;;
70385;SDS011;63206;55.650;37.500;2023-02-26T05:58:27;4.75;;;1.45;;
70385;SDS011;63206;55.650;37.500;2023-02-26T06:00:57;2.30;;;1.60;;
70385;SDS011;63206;55.650;37.500;2023-02-26T06:03:26;3.67;;;1.70;;
70385;SDS011;63206;55.650;37.500;2023-02-26T06:05:54;3.53;;;1.80;;
70385;SDS011;63206;55.650;37.500;2023-02-26T06:08:28;4.57;;;1.95;;
70385;SDS011;63206;55.650;37.500;2023-02-26T06:10:54;2.85;;;1.70;;
70385;SDS011;63206;55.650;37.500;2023-02-26T06:13:23;3.60;;;1.60;;
70385;SDS011;63206;55.650;37.500;2023-02-26T06:15:57;4.05;;;1.83;;
70385;SDS011;63206;55.650;37.500;2023-02-26T06:18:26;2.85;;;1.55;;
70385;SDS011;63206;55.650;37.500;2023-02-26T06:20:55;5.68;;;2.00;;
70385;SDS011;63206;55.650;37.500;2023-02-26T06:23:24;4.88;;;2.10;;
70385;SDS011;63206;55.650;37.500;2023-02-26T06:25:50;3.58;;;1.80;;
70385;SDS011;63206;55.650;37.500;2023-02-26T06:28:17;4.90;;;1.90;;
70385;SDS011;63206;55.650;37.500;2023-02-26T06:30:48;4.72;;;2.25;;
70385;SDS011;63206;55.650;37.500;2023-02-26T06:33:17;5.03;;;1.83;;
70385;SDS011;63206;55.650;37.500;2023-02-26T06:35:43;3.95;;;2.00;;
70385;SDS011;63206;55.650;37.500;2023-02-26T06:38:09;2.60;;;1.75;;
70385;SDS011;63206;55.650;37.500;2023-02-26T06:40:35;6.68;;;1.80;;
70385;SDS011;63206;55.650;37.500;2023-02-26T06:43:07;4.25;;;2.03;;
70385;SDS011;63206;55.650;37.500;2023-02-26T06:45:33;4.95;;;2.03;;
70385;SDS011;63206;55.650;37.500;2023-02-26T06:47:59;4.40;;;2.20;;
70385;SDS011;63206;55.650;37.500;2023-02-26T06:50:25;5.70;;;2.10;;
70385;SDS011;63206;55.650;37.500;2023-02-26T06:52:51;4.07;;;2.00;;
70385;SDS011;63206;55.650;37.500;2023-02-26T06:55:17;5.13;;;2.40;;
70385;SDS011;63206;55.650;37.500;2023-02-26T06:57:46;6.35;;;2.22;;
70385;SDS011;63206;55.650;37.500;2023-02-26T07:00:15;5.20;;;2.33;;
70385;SDS011;63206;55.650;37.500;2023-02-26T07:02:44;5.30;;;2.03;;
70385;SDS011;63206;55.650;37.500;2023-02-26T07:05:13;2.80;;;1.80;;
70385;SDS011;63206;55.650;37.500;2023-02-26T07:07:41;6.40;;;2.30;;
70385;SDS011;63206;55.650;37.500;2023-02-26T07:10:13;5.13;;;2.22;;
70385;SDS011;63206;55.650;37.500;2023-02-26T07:12:39;5.18;;;2.35;;
70385;SDS011;63206;55.650;37.500;2023-02-26T07:15:05;6.43;;;2.50;;
70385;SDS011;63206;55.650;37.500;2023-02-26T07:17:33;5.00;;;2.53;;
70385;SDS011;63206;55.650;37.500;2023-02-26T07:20:04;5.57;;;2.30;;
70385;SDS011;63206;55.650;37.500;2023-02-26T07:22:36;4.53;;;2.20;;
70385;SDS011;63206;55.650;37.500;2023-02-26T07:25:08;6.22;;;2.40;;
70385;SDS011;63206;55.650;37.500;2023-02-26T07:27:34;5.05;;;2.30;;
70385;SDS011;63206;55.650;37.500;2023-02-26T07:30:00;5.25;;;2.30;;
70385;SDS011;63206;55.650;37.500;2023-02-26T07:32:26;6.10;;;2.45;;
70385;SDS011;63206;55.650;37.500;2023-02-26T07:34:52;5.55;;;2.30;;
70385;SDS011;63206;55.650;37.500;2023-02-26T07:37:18;5.82;;;2.50;;
70385;SDS011;63206;55.650;37.500;2023-02-26T07:39:44;6.13;;;2.35;;
70385;SDS011;63206;55.650;37.500;2023-02-26T07:42:10;6.22;;;2.40;;
70385;SDS011;63206;55.650;37.500;2023-02-26T07:44:44;5.60;;;2.40;;
70385;SDS011;63206;55.650;37.500;2023-02-26T07:47:12;5.60;;;2.17;;
70385;SDS011;63206;55.650;37.500;2023-02-26T07:49:38;5.28;;;2.20;;
70385;SDS011;63206;55.650;37.500;2023-02-26T07:52:04;6.60;;;2.40;;
70385;SDS011;63206;55.650;37.500;2023-02-26T07:54:38;5.65;;;2.17;;
70385;SDS011;63206;55.650;37.500;2023-02-26T07:57:04;5.28;;;2.33;;
70385;SDS011;63206;55.650;37.500;2023-02-26T07:59:30;10.88;;;2.40;;
70385;SDS011;63206;55.650;37.500;2023-02-26T08:01:56;4.57;;;2.22;;
70385;SDS011;63206;55.650;37.500;2023-02-26T08:04:21;4.80;;;2.20;;
70385;SDS011;63206;55.650;37.500;2023-02-26T08:06:50;4.97;;;2.20;;
70385;SDS011;63206;55.650;37.500;2023-02-26T08:09:22;9.27;;;3.60;;
70385;SDS011;63206;55.650;37.500;2023-02-26T08:11:53;4.82;;;2.13;;
70385;SDS011;63206;55.650;37.500;2023-02-26T08:14:19;4.28;;;2.08;;
70385;SDS011;63206;55.650;37.500;2023-02-26T08:16:51;4.50;;;2.08;;
70385;SDS011;63206;55.650;37.500;2023-02-26T08:19:20;4.90;;;2.22;;
70385;SDS011;63206;55.650;37.500;2023-02-26T08:21:50;5.15;;;2.10;;
70385;SDS011;63206;55.650;37.500;2023-02-26T08:24:19;4.00;;;1.63;;
70385;SDS011;63206;55.650;37.500;2023-02-26T08:26:48;4.45;;;2.00;;
70385;SDS011;63206;55.650;37.500;2023-02-26T08:29:17;3.70;;;1.90;;
70385;SDS011;63206;55.650;37.500;2023-02-26T08:31:43;5.55;;;2.20;;
70385;SDS011;63206;55.650;37.500;2023-02-26T08:34:12;5.07;;;1.85;;
70385;SDS011;63206;55.650;37.500;2023-02-26T08:36:38;5.20;;;1.77;;
70385;SDS011;63206;55.650;37.500;2023-02-26T08:39:07;2.15;;;1.50;;
70385;SDS011;63206;55.650;37.500;2023-02-26T08:41:32;4.75;;;1.90;;
70385;SDS011;63206;55.650;37.500;2023-02-26T08:44:03;4.50;;;2.10;;
70385;SDS011;63206;55.650;37.500;2023-02-26T08:46:35;3.28;;;1.65;;
70385;SDS011;63206;55.650;37.500;2023-02-26T08:49:01;4.13;;;1.85;;
70385;SDS011;63206;55.650;37.500;2023-02-26T08:51:29;3.33;;;1.80;;
70385;SDS011;63206;55.650;37.500;2023-02-26T08:54:07;3.72;;;1.55;;
70385;SDS011;63206;55.650;37.500;2023-02-26T08:56:34;2.90;;;1.40;;
70385;SDS011;63206;55.650;37.500;2023-02-26T08:59:00;5.80;;;1.92;;
70385;SDS011;63206;55.650;37.500;2023-02-26T09:01:30;3.53;;;1.60;;
70385;SDS011;63206;55.650;37.500;2023-02-26T09:03:59;3.80;;;1.67;;
70385;SDS011;63206;55.650;37.500;2023-02-26T09:06:25;4.65;;;1.50;;
70385;SDS011;63206;55.650;37.500;2023-02-26T09:08:53;4.10;;;1.60;;
70385;SDS011;63206;55.650;37.500;2023-02-26T09:11:25;3.97;;;1.50;;
70385;SDS011;63206;55.650;37.500;2023-02-26T09:13:57;2.85;;;1.50;;
70385;SDS011;63206;55.650;37.500;2023-02-26T09:16:29;3.10;;;1.35;;
70385;SDS011;63206;55.650;37.500;2023-02-26T09:18:56;1.83;;;1.33;;
70385;SDS011;63206;55.650;37.500;2023-02-26T09:21:28;4.82;;;1.70;;
70385;SDS011;63206;55.650;37.500;2023-02-26T09:23:56;4.13;;;1.70;;
70385;SDS011;63206;55.650;37.500;2023-02-26T09:26:28;4.50;;;1.95;;
70385;SDS011;63206;55.650;37.500;2023-02-26T09:28:57;3.67;;;1.70;;
70385;SDS011;63206;55.650;37.500;2023-02-26T09:31:23;6.15;;;1.70;;
70385;SDS011;63206;55.650;37.500;2023-02-26T09:33:49;2.65;;;1.50;;
70385;SDS011;63206;55.650;37.500;2023-02-26T09:36:20;3.90;;;1.70;;
70385;SDS011;63206;55.650;37.500;2023-02-26T09:38:52;3.40;;;1.50;;
70385;SDS011;63206;55.650;37.500;2023-02-26T09:41:23;2.45;;;1.60;;
70385;SDS011;63206;55.650;37.500;2023-02-26T09:49:18;3.75;;;1.45;;
70385;SDS011;63206;55.650;37.500;2023-02-26T09:51:50;4.20;;;1.70;;
70385;SDS011;63206;55.650;37.500;2023-02-26T09:54:23;3.70;;;1.77;;
70385;SDS011;63206;55.650;37.500;2023-02-26T09:56:50;3.58;;;1.92;;
70385;SDS011;63206;55.650;37.500;2023-02-26T09:59:20;4.20;;;1.83;;
70385;SDS011;63206;55.650;37.500;2023-02-26T10:02:01;2.17;;;1.73;;
70385;SDS011;63206;55.650;37.500;2023-02-26T10:10:14;4.05;;;2.00;;
70385;SDS011;63206;55.650;37.500;2023-02-26T10:12:45;4.57;;;2.00;;
70385;SDS011;63206;55.650;37.500;2023-02-26T10:18:22;4.93;;;1.95;;
70385;SDS011;63206;55.650;37.500;2023-02-26T10:21:22;5.93;;;1.80;;
70385;SDS011;63206;55.650;37.500;2023-02-26T10:23:54;6.10;;;2.10;;
70385;SDS011;63206;55.650;37.500;2023-02-26T10:26:27;3.92;;;1.73;;
70385;SDS011;63206;55.650;37.500;2023-02-26T10:32:00;4.63;;;2.22;;
70385;SDS011;63206;55.650;37.500;2023-02-26T10:34:42;3.50;;;1.70;;
70385;SDS011;63206;55.650;37.500;2023-02-26T10:37:27;3.33;;;1.70;;
70385;SDS011;63206;55.650;37.500;2023-02-26T10:42:59;3.58;;;1.70;;
70385;SDS011;63206;55.650;37.500;2023-02-26T10:53:08;4.93;;;1.98;;
70385;SDS011;63206;55.650;37.500;2023-02-26T10:55:41;5.15;;;1.80;;
70385;SDS011;63206;55.650;37.500;2023-02-26T10:58:15;3.00;;;1.58;;
70385;SDS011;63206;55.650;37.500;2023-02-26T11:00:45;4.28;;;1.85;;
70385;SDS011;63206;55.650;37.500;2023-02-26T11:03:15;3.90;;;1.70;;
70385;SDS011;63206;55.650;37.500;2023-02-26T11:05:42;4.75;;;1.85;;
70385;SDS011;63206;55.650;37.500;2023-02-26T11:08:15;4.47;;;2.10;;
70385;SDS011;63206;55.650;37.500;2023-02-26T11:10:52;5.32;;;1.98;;
70385;SDS011;63206;55.650;37.500;2023-02-26T11:13:20;4.88;;;2.33;;
70385;SDS011;63206;55.650;37.500;2023-02-26T11:15:54;5.47;;;2.05;;
70385;SDS011;63206;55.650;37.500;2023-02-26T11:18:24;3.97;;;2.22;;
70385;SDS011;63206;55.650;37.500;2023-02-26T11:20:53;5.00;;;2.00;;
70385;SDS011;63206;55.650;37.500;2023-02-26T11:23:27;4.50;;;1.90;;
70385;SDS011;63206;55.650;37.500;2023-02-26T11:28:59;5.50;;;2.13;;
70385;SDS011;63206;55.650;37.500;2023-02-26T11:31:28;4.85;;;2.03;;
70385;SDS011;63206;55.650;37.500;2023-02-26T11:34:07;3.78;;;2.00;;
70385;SDS011;63206;55.650;37.500;2023-02-26T11:36:40;5.80;;;2.70;;
70385;SDS011;63206;55.650;37.500;2023-02-26T11:39:07;4.65;;;2.15;;
70385;SDS011;63206;55.650;37.500;2023-02-26T11:41:39;5.85;;;2.17;;
70385;SDS011;63206;55.650;37.500;2023-02-26T11:44:13;4.85;;;2.03;;
70385;SDS011;63206;55.650;37.500;2023-02-26T11:46:47;4.72;;;2.22;;
70385;SDS011;63206;55.650;37.500;2023-02-26T11:49:24;3.28;;;1.90;;
70385;SDS011;63206;55.650;37.500;2023-02-26T11:54:53;3.85;;;1.92;;
70385;SDS011;63206;55.650;37.500;2023-02-26T11:57:29;4.28;;;1.90;;
70385;SDS011;63206;55.650;37.500;2023-02-26T12:00:02;6.55;;;2.33;;
70385;SDS011;63206;55.650;37.500;2023-02-26T12:02:43;4.82;;;2.08;;
70385;SDS011;63206;55.650;37.500;2023-02-26T12:05:15;5.68;;;2.42;;
70385;SDS011;63206;55.650;37.500;2023-02-26T12:07:47;5.63;;;2.40;;
70385;SDS011;63206;55.650;37.500;2023-02-26T12:10:21;5.68;;;2.40;;
70385;SDS011;63206;55.650;37.500;2023-02-26T12:12:55;4.63;;;2.17;;
70385;SDS011;63206;55.650;37.500;2023-02-26T12:23:54;3.92;;;1.95;;
70385;SDS011;63206;55.650;37.500;2023-02-26T12:26:31;5.97;;;2.17;;
70385;SDS011;63206;55.650;37.500;2023-02-26T12:29:11;5.13;;;2.45;;
70385;SDS011;63206;55.650;37.500;2023-02-26T12:34:36;6.18;;;2.80;;
70385;SDS011;63206;55.650;37.500;2023-02-26T12:42:30;7.45;;;3.08;;
70385;SDS011;63206;55.650;37.500;2023-02-26T12:52:50;7.05;;;2.80;;
70385;SDS011;63206;55.650;37.500;2023-02-26T12:58:08;9.15;;;3.30;;
70385;SDS011;63206;55.650;37.500;2023-02-26T13:01:27;9.57;;;3.45;;
70385;SDS011;63206;55.650;37.500;2023-02-26T13:03:48;6.75;;;2.85;;
70385;SDS011;63206;55.650;37.500;2023-02-26T13:06:39;8.52;;;3.72;;
70385;SDS011;63206;55.650;37.500;2023-02-26T13:17:39;7.95;;;3.90;;
70385;SDS011;63206;55.650;37.500;2023-02-26T13:20:09;10.18;;;3.90;;
70385;SDS011;63206;55.650;37.500;2023-02-26T13:26:01;8.93;;;3.80;;
70385;SDS011;63206;55.650;37.500;2023-02-26T13:28:44;8.95;;;3.92;;
70385;SDS011;63206;55.650;37.500;2023-02-26T13:31:19;8.95;;;3.50;;
70385;SDS011;63206;55.650;37.500;2023-02-26T13:33:55;11.48;;;4.32;;
70385;SDS011;63206;55.650;37.500;2023-02-26T13:36:31;10.18;;;4.13;;
70385;SDS011;63206;55.650;37.500;2023-02-26T13:41:54;9.60;;;4.20;;
70385;SDS011;63206;55.650;37.500;2023-02-26T13:51:46;10.27;;;4.57;;
70385;SDS011;63206;55.650;37.500;2023-02-26T13:56:48;9.90;;;3.95;;
70385;SDS011;63206;55.650;37.500;2023-02-26T13:59:24;10.15;;;4.28;;
70385;SDS011;63206;55.650;37.500;2023-02-26T14:01:54;11.65;;;4.57;;
70385;SDS011;63206;55.650;37.500;2023-02-26T14:06:57;12.88;;;5.15;;
70385;SDS011;63206;55.650;37.500;2023-02-26T14:16:58;11.23;;;5.03;;
70385;SDS011;63206;55.650;37.500;2023-02-26T14:19:44;11.00;;;5.30;;
70385;SDS011;63206;55.650;37.500;2023-02-26T14:24:51;12.75;;;5.53;;
70385;SDS011;63206;55.650;37.500;2023-02-26T14:29:58;11.18;;;4.93;;
70385;SDS011;63206;55.650;37.500;2023-02-26T14:35:31;12.02;;;5.25;;
70385;SDS011;63206;55.650;37.500;2023-02-26T14:37:56;15.02;;;6.03;;
70385;SDS011;63206;55.650;37.500;2023-02-26T14:40:26;13.73;;;6.00;;
70385;SDS011;63206;55.650;37.500;2023-02-26T14:42:59;13.50;;;5.40;;
70385;SDS011;63206;55.650;37.500;2023-02-26T14:45:34;12.00;;;5.65;;
70385;SDS011;63206;55.650;37.500;2023-02-26T14:48:07;12.70;;;5.25;;
70385;SDS011;63206;55.650;37.500;2023-02-26T14:56:24;14.57;;;6.22;;
70385;SDS011;63206;55.650;37.500;2023-02-26T14:58:59;14.68;;;6.15;;
70385;SDS011;63206;55.650;37.500;2023-02-26T15:09:13;14.55;;;5.80;;
70385;SDS011;63206;55.650;37.500;2023-02-26T15:11:53;14.15;;;5.95;;
70385;SDS011;63206;55.650;37.500;2023-02-26T15:17:18;15.40;;;6.05;;
70385;SDS011;63206;55.650;37.500;2023-02-26T15:22:30;14.63;;;6.85;;
70385;SDS011;63206;55.650;37.500;2023-02-26T15:25:17;16.35;;;7.00;;
70385;SDS011;63206;55.650;37.500;2023-02-26T15:27:51;13.73;;;5.97;;
70385;SDS011;63206;55.650;37.500;2023-02-26T15:30:21;15.63;;;5.75;;
70385;SDS011;63206;55.650;37.500;2023-02-26T15:32:47;14.52;;;6.45;;
70385;SDS011;63206;55.650;37.500;2023-02-26T15:35:17;15.27;;;6.68;;
70385;SDS011;63206;55.650;37.500;2023-02-26T15:37:47;17.02;;;6.63;;
70385;SDS011;63206;55.650;37.500;2023-02-26T15:40:13;15.27;;;6.40;;
70385;SDS011;63206;55.650;37.500;2023-02-26T15:42:42;14.77;;;6.43;;
70385;SDS011;63206;55.650;37.500;2023-02-26T15:45:15;14.05;;;6.05;;
70385;SDS011;63206;55.650;37.500;2023-02-26T15:48:05;16.08;;;7.32;;
70385;SDS011;63206;55.650;37.500;2023-02-26T15:50:36;14.82;;;6.10;;
70385;SDS011;63206;55.650;37.500;2023-02-26T15:53:03;15.40;;;5.80;;
70385;SDS011;63206;55.650;37.500;2023-02-26T15:55:31;15.38;;;6.00;;
70385;SDS011;63206;55.650;37.500;2023-02-26T15:57:57;13.85;;;6.30;;
70385;SDS011;63206;55.650;37.500;2023-02-26T16:00:24;14.68;;;5.63;;
70385;SDS011;63206;55.650;37.500;2023-02-26T16:02:53;13.88;;;5.95;;
70385;SDS011;63206;55.650;37.500;2023-02-26T16:05:22;16.95;;;6.78;;
70385;SDS011;63206;55.650;37.500;2023-02-26T16:07:49;14.43;;;5.90;;
70385;SDS011;63206;55.650;37.500;2023-02-26T16:10:17;15.23;;;5.88;;
70385;SDS011;63206;55.650;37.500;2023-02-26T16:12:43;12.57;;;6.03;;
70385;SDS011;63206;55.650;37.500;2023-02-26T16:15:18;15.93;;;7.00;;
70385;SDS011;63206;55.650;37.500;2023-02-26T16:17:47;19.40;;;6.68;;
70385;SDS011;63206;55.650;37.500;2023-02-26T16:20:18;17.42;;;6.88;;
70385;SDS011;63206;55.650;37.500;2023-02-26T16:22:49;15.70;;;6.80;;
70385;SDS011;63206;55.650;37.500;2023-02-26T16:25:17;14.68;;;6.72;;
70385;SDS011;63206;55.650;37.500;2023-02-26T16:27:52;14.50;;;6.78;;
70385;SDS011;63206;55.650;37.500;2023-02-26T16:30:31;18.92;;;7.15;;
70385;SDS011;63206;55.650;37.500;2023-02-26T16:33:02;14.55;;;5.72;;
70385;SDS011;63206;55.650;37.500;2023-02-26T16:35:32;16.92;;;6.60;;
70385;SDS011;63206;55.650;37.500;2023-02-26T16:37:59;16.45;;;6.68;;
70385;SDS011;63206;55.650;37.500;2023-02-26T16:40:37;16.45;;;6.53;;
70385;SDS011;63206;55.650;37.500;2023-02-26T16:45:58;14.57;;;5.60;;
70385;SDS011;63206;55.650;37.500;2023-02-26T16:48:29;14.38;;;5.70;;
70385;SDS011;63206;55.650;37.500;2023-02-26T16:51:06;14.02;;;5.55;;
70385;SDS011;63206;55.650;37.500;2023-02-26T16:53:36;14.82;;;5.57;;
70385;SDS011;63206;55.650;37.500;2023-02-26T16:56:15;15.23;;;6.30;;
70385;SDS011;63206;55.650;37.500;2023-02-26T16:58:57;13.50;;;6.15;;
70385;SDS011;63206;55.650;37.500;2023-02-26T17:01:33;14.95;;;5.75;;
70385;SDS011;63206;55.650;37.500;2023-02-26T17:04:00;13.38;;;5.53;;
70385;SDS011;63206;55.650;37.500;2023-02-26T17:06:28;13.55;;;5.47;;
70385;SDS011;63206;55.650;37.500;2023-02-26T17:09:00;13.07;;;5.28;;
70385;SDS011;63206;55.650;37.500;2023-02-26T17:11:34;16.02;;;7.38;;
70385;SDS011;63206;55.650;37.500;2023-02-26T17:16:37;13.80;;;5.55;;
70385;SDS011;63206;55.650;37.500;2023-02-26T17:19:06;13.68;;;6.03;;
70385;SDS011;63206;55.650;37.500;2023-02-26T17:24:06;15.05;;;5.35;;
70385;SDS011;63206;55.650;37.500;2023-02-26T17:26:36;13.00;;;5.20;;
70385;SDS011;63206;55.650;37.500;2023-02-26T17:29:10;12.73;;;5.07;;
70385;SDS011;63206;55.650;37.500;2023-02-26T17:31:43;19.17;;;6.28;;
70385;SDS011;63206;55.650;37.500;2023-02-26T17:34:17;15.02;;;5.68;;
70385;SDS011;63206;55.650;37.500;2023-02-26T17:36:43;12.75;;;5.63;;
70385;SDS011;63206;55.650;37.500;2023-02-26T17:39:11;15.40;;;6.28;;
70385;SDS011;63206;55.650;37.500;2023-02-26T17:41:46;11.27;;;4.43;;
70385;SDS011;63206;55.650;37.500;2023-02-26T17:44:13;11.68;;;4.60;;
70385;SDS011;63206;55.650;37.500;2023-02-26T17:46:39;12.57;;;4.53;;
70385;SDS011;63206;55.650;37.500;2023-02-26T17:49:05;13.38;;;5.20;;
70385;SDS011;63206;55.650;37.500;2023-02-26T17:51:34;11.77;;;5.05;;
70385;SDS011;63206;55.650;37.500;2023-02-26T17:54:00;11.73;;;5.03;;
70385;SDS011;63206;55.650;37.500;2023-02-26T17:56:29;15.30;;;5.78;;
70385;SDS011;63206;55.650;37.500;2023-02-26T17:58:55;15.05;;;5.43;;
70385;SDS011;63206;55.650;37.500;2023-02-26T18:01:23;14.60;;;5.05;;
70385;SDS011;63206;55.650;37.500;2023-02-26T18:03:51;12.65;;;5.53;;
70385;SDS011;63206;55.650;37.500;2023-02-26T18:06:22;14.60;;;5.07;;
70385;SDS011;63206;55.650;37.500;2023-02-26T18:08:48;11.60;;;5.10;;
70385;SDS011;63206;55.650;37.500;2023-02-26T18:11:15;14.15;;;5.82;;
70385;SDS011;63206;55.650;37.500;2023-02-26T18:13:41;12.93;;;4.97;;